Time;durP1;ratioP1;P1;durP2;ratioP2;P2;SDS_P1;SDS_P2;PMS_P1;PMS_P2;Temp;Humidity;BMP_temperature;BMP_pressure;BME280_temperature;BME280_humidity;BME280_pressure;Samples;Min_cycle;Max_cycle;Signal;HPM_P1;HPM_P2
2022/04/22 00:02:07;;;;;;;;;;;19.20;40.00;;;;;;4950640;29;19911;-78
2022/04/22 00:04:33;;;;;;;;;;;19.20;40.60;;;;;;4952926;28;20463;-78
2022/04/22 00:06:58;;;;;;;;;;;19.20;41.20;;;;;;4953287;28;19919;-77
2022/04/22 00:09:23;;;;;;;;;;;19.30;41.20;;;;;;4953437;28;19969;-77
2022/04/22 00:11:49;;;;;;;;;;;19.40;41.30;;;;;;4953493;29;19919;-76
2022/04/22 00:14:14;;;;;;;;;;;19.40;41.20;;;;;;4953666;28;20002;-78
2022/04/22 00:16:40;;;;;;;;;;;19.50;41.50;;;;;;4954318;28;20341;-78
2022/04/22 00:19:06;;;;;;;;;;;19.50;41.50;;;;;;4953905;28;19917;-78
2022/04/22 00:21:32;;;;;;;;;;;19.50;41.60;;;;;;4953809;28;19950;-78
2022/04/22 00:23:57;;;;;;;;;;;19.60;41.50;;;;;;4953759;28;19981;-77
2022/04/22 00:26:23;;;;;;;;;;;19.50;41.40;;;;;;4953816;28;20387;-77
2022/04/22 00:28:48;;;;;;;;;;;19.50;41.40;;;;;;4953620;28;19910;-77
2022/04/22 00:31:14;;;;;;;;;;;19.60;41.50;;;;;;4953745;28;20012;-77
2022/04/22 00:33:41;;;;;;;;;;;19.50;41.50;;;;;;4953188;29;20005;-78
2022/04/22 00:36:06;;;;;;;;;;;19.60;41.50;;;;;;4954356;28;19967;-77
2022/04/22 00:38:32;;;;;;;;;;;19.60;41.50;;;;;;4953045;28;19910;-76
2022/04/22 00:40:57;;;;;;;;;;;19.60;41.50;;;;;;4953109;29;19918;-76
2022/04/22 00:43:24;;;;;;;;;;;19.60;41.70;;;;;;4953236;28;19914;-77
2022/04/22 00:45:51;;;;;;;;;;;19.50;41.70;;;;;;4953228;28;19965;-77
2022/04/22 00:48:17;;;;;;;;;;;19.40;41.70;;;;;;4951809;28;19917;-77
2022/04/22 00:50:43;;;;;;;;;;;19.40;41.80;;;;;;4952674;28;20287;-77
2022/04/22 00:53:08;;;;;;;;;;;19.30;41.80;;;;;;4953011;28;20013;-77
2022/04/22 00:55:35;;;;;;;;;;;19.30;41.80;;;;;;4953024;29;19941;-77
2022/04/22 00:58:01;;;;;;;;;;;19.30;41.90;;;;;;4952843;29;19963;-77
2022/04/22 01:00:27;;;;;;;;;;;19.30;41.90;;;;;;4952595;28;19933;-76
2022/04/22 01:02:53;;;;;;;;;;;19.30;42.10;;;;;;4952729;29;20366;-76
2022/04/22 01:10:47;;;;;;;;;;;19.30;42.10;;;;;;4952530;29;19980;-76
2022/04/22 01:13:13;;;;;;;;;;;19.30;42.20;;;;;;4952623;29;20390;-76
2022/04/22 01:15:38;;;;;;;;;;;19.30;42.30;;;;;;4951422;28;19911;-76
2022/04/22 01:18:04;;;;;;;;;;;19.30;42.20;;;;;;4952649;29;20286;-76
2022/04/22 01:20:30;;;;;;;;;;;19.30;42.20;;;;;;4952402;28;20401;-76
2022/04/22 01:22:55;;;;;;;;;;;19.30;42.20;;;;;;4952428;29;19918;-76
2022/04/22 01:25:21;;;;;;;;;;;19.30;42.30;;;;;;4952455;28;19914;-76
2022/04/22 01:27:50;;;;;;;;;;;19.10;42.20;;;;;;4952545;29;19918;-76
2022/04/22 01:30:19;;;;;;;;;;;19.30;42.40;;;;;;4952010;28;19922;-76
2022/04/22 01:32:45;;;;;;;;;;;19.30;42.40;;;;;;4952430;29;20413;-76
2022/04/22 01:35:10;;;;;;;;;;;19.20;42.50;;;;;;4952203;29;19918;-76
2022/04/22 01:37:37;;;;;;;;;;;19.20;42.50;;;;;;4952444;28;19918;-76
2022/04/22 01:40:03;;;;;;;;;;;19.20;42.50;;;;;;4951989;29;19915;-77
2022/04/22 01:42:28;;;;;;;;;;;19.20;42.60;;;;;;4952256;29;20290;-77
2022/04/22 01:44:54;;;;;;;;;;;19.20;42.60;;;;;;4952086;29;19917;-77
2022/04/22 01:47:19;;;;;;;;;;;19.30;42.70;;;;;;4952279;28;19965;-76
2022/04/22 01:49:45;;;;;;;;;;;19.20;42.70;;;;;;4951827;29;19915;-76
2022/04/22 01:52:10;;;;;;;;;;;19.20;42.70;;;;;;4952078;29;20382;-77
2022/04/22 01:54:36;;;;;;;;;;;19.20;42.70;;;;;;4951972;28;19915;-77
2022/04/22 01:57:02;;;;;;;;;;;19.10;42.90;;;;;;4952054;28;20070;-77
2022/04/22 01:59:28;;;;;;;;;;;19.10;43.00;;;;;;4951670;28;19911;-76
2022/04/22 02:01:53;;;;;;;;;;;19.10;43.20;;;;;;4950617;28;20277;-77
2022/04/22 02:04:19;;;;;;;;;;;19.20;43.30;;;;;;4951857;28;19918;-76
2022/04/22 02:06:45;;;;;;;;;;;19.10;43.20;;;;;;4951894;28;20430;-76
2022/04/22 02:09:11;;;;;;;;;;;19.00;43.20;;;;;;4951414;28;19915;-76
2022/04/22 02:11:37;;;;;;;;;;;19.00;43.30;;;;;;4950514;28;19911;-76
2022/04/22 02:14:02;;;;;;;;;;;19.00;43.90;;;;;;4951652;28;19914;-76
2022/04/22 02:16:28;;;;;;;;;;;19.00;43.30;;;;;;4951761;28;19914;-76
2022/04/22 02:18:53;;;;;;;;;;;19.00;43.30;;;;;;4951591;29;19934;-76
2022/04/22 02:21:21;;;;;;;;;;;19.00;43.30;;;;;;4950380;28;19911;-76
2022/04/22 02:23:46;;;;;;;;;;;19.00;43.50;;;;;;4951581;28;19910;-77
2022/04/22 02:26:12;;;;;;;;;;;19.10;43.50;;;;;;4950277;28;19917;-77
2022/04/22 02:28:38;;;;;;;;;;;19.00;43.30;;;;;;4951422;28;20019;-76
2022/04/22 02:31:06;;;;;;;;;;;19.00;43.40;;;;;;4950212;28;20367;-76
2022/04/22 02:33:32;;;;;;;;;;;19.10;43.40;;;;;;4951441;28;19945;-76
2022/04/22 02:35:59;;;;;;;;;;;19.10;43.50;;;;;;4951488;28;19968;-76
2022/04/22 02:38:26;;;;;;;;;;;19.10;43.40;;;;;;4950120;28;20007;-76
2022/04/22 02:46:19;;;;;;;;;;;19.10;43.50;;;;;;4951342;29;19921;-76
2022/04/22 02:48:45;;;;;;;;;;;19.10;43.50;;;;;;4951118;28;19910;-76
2022/04/22 02:51:10;;;;;;;;;;;19.10;43.50;;;;;;4950888;28;19990;-76
2022/04/22 02:53:36;;;;;;;;;;;19.00;43.50;;;;;;4951127;29;20291;-76
2022/04/22 02:56:01;;;;;;;;;;;19.00;43.60;;;;;;4951155;28;19915;-76
2022/04/22 02:58:27;;;;;;;;;;;19.00;43.80;;;;;;4950903;29;20278;-76
2022/04/22 03:00:52;;;;;;;;;;;19.00;43.80;;;;;;4950959;29;19954;-76
2022/04/22 03:03:18;;;;;;;;;;;19.00;44.00;;;;;;4951205;29;19914;-76
2022/04/22 03:05:43;;;;;;;;;;;19.00;44.10;;;;;;4950968;29;19914;-76
2022/04/22 03:08:09;;;;;;;;;;;19.00;44.20;;;;;;4951232;29;19915;-76
2022/04/22 03:10:34;;;;;;;;;;;19.00;44.40;;;;;;4950701;29;19918;-75
2022/04/22 03:13:00;;;;;;;;;;;19.00;45.00;;;;;;4949575;28;20329;-76
2022/04/22 03:15:26;;;;;;;;;;;18.90;45.20;;;;;;4950740;28;19965;-76
2022/04/22 03:17:52;;;;;;;;;;;18.90;45.60;;;;;;4950847;29;19933;-77
2022/04/22 03:20:17;;;;;;;;;;;18.90;45.70;;;;;;4949218;28;19911;-77
2022/04/22 03:22:43;;;;;;;;;;;19.00;45.80;;;;;;4950813;28;19917;-76
2022/04/22 03:25:09;;;;;;;;;;;19.00;45.40;;;;;;4950777;29;19997;-76
2022/04/22 03:27:34;;;;;;;;;;;19.00;45.20;;;;;;4949548;28;19954;-76
2022/04/22 03:30:02;;;;;;;;;;;19.00;45.10;;;;;;4950397;28;19965;-76
2022/04/22 03:32:28;;;;;;;;;;;19.00;45.10;;;;;;4950641;29;19963;-76
2022/04/22 03:34:53;;;;;;;;;;;18.90;45.00;;;;;;4950470;28;19914;-76
2022/04/22 03:37:19;;;;;;;;;;;19.00;45.10;;;;;;4950402;29;20393;-76
2022/04/22 03:39:44;;;;;;;;;;;19.00;45.20;;;;;;4949666;29;19972;-76
2022/04/22 03:42:09;;;;;;;;;;;18.90;45.20;;;;;;4950544;29;19915;-77
2022/04/22 03:44:36;;;;;;;;;;;18.90;45.30;;;;;;4950420;29;20035;-76
2022/04/22 03:47:03;;;;;;;;;;;18.90;45.80;;;;;;4949603;28;20267;-76
2022/04/22 03:49:29;;;;;;;;;;;18.90;45.60;;;;;;4950228;28;20289;-76
2022/04/22 03:51:54;;;;;;;;;;;18.90;45.60;;;;;;4950314;29;19919;-76
2022/04/22 03:54:22;;;;;;;;;;;18.90;45.80;;;;;;4950270;29;19921;-76
2022/04/22 03:59:32;;;;;;;;;;;19.00;45.90;;;;;;4950307;29;20400;-76
2022/04/22 04:01:58;;;;;;;;;;;19.00;46.00;;;;;;4950306;29;19911;-76
2022/04/22 04:04:23;;;;;;;;;;;19.00;45.80;;;;;;4950212;29;19921;-76
2022/04/22 04:06:49;;;;;;;;;;;19.00;46.40;;;;;;4949354;28;19911;-76
2022/04/22 04:17:36;;;;;;;;;;;18.80;46.80;;;;;;4954616;28;19918;-78
2022/04/22 04:25:30;;;;;;;;;;;18.90;46.70;;;;;;4950633;29;19921;-77
2022/04/22 04:27:56;;;;;;;;;;;18.80;46.60;;;;;;4951064;28;19914;-77
2022/04/22 04:30:22;;;;;;;;;;;18.80;46.60;;;;;;4950148;29;19911;-77
2022/04/22 04:32:47;;;;;;;;;;;18.80;46.60;;;;;;4950421;28;19964;-77
2022/04/22 04:35:13;;;;;;;;;;;18.80;46.50;;;;;;4949286;29;20532;-77
2022/04/22 04:37:39;;;;;;;;;;;18.80;46.40;;;;;;4950863;28;19917;-77
2022/04/22 04:40:05;;;;;;;;;;;18.90;46.60;;;;;;4946067;29;20009;-76
2022/04/22 04:42:30;;;;;;;;;;;18.80;46.40;;;;;;4945127;28;19998;-77
2022/04/22 04:44:56;;;;;;;;;;;18.90;46.50;;;;;;4945216;28;19918;-77
2022/04/22 04:47:21;;;;;;;;;;;19.00;45.90;;;;;;4944188;28;19997;-78
2022/04/22 04:49:47;;;;;;;;;;;19.10;45.30;;;;;;4947021;28;19915;-77
2022/04/22 04:52:12;;;;;;;;;;;19.20;45.00;;;;;;4955323;28;19922;-78
2022/04/22 04:54:38;;;;;;;;;;;19.20;45.00;;;;;;4954251;29;19933;-77
2022/04/22 04:57:03;;;;;;;;;;;19.20;44.70;;;;;;4953063;28;20289;-77
2022/04/22 04:59:29;;;;;;;;;;;19.20;44.70;;;;;;4951648;29;19980;-77
2022/04/22 05:01:54;;;;;;;;;;;19.20;44.50;;;;;;4953443;28;19910;-77
2022/04/22 05:04:20;;;;;;;;;;;19.20;44.50;;;;;;4953708;29;20015;-78
2022/04/22 05:06:45;;;;;;;;;;;19.20;44.50;;;;;;4953504;29;19910;-77
2022/04/22 05:09:10;;;;;;;;;;;19.20;44.50;;;;;;4953332;29;20005;-78
2022/04/22 05:11:36;;;;;;;;;;;19.30;44.70;;;;;;4953370;29;19910;-78
2022/04/22 05:14:03;;;;;;;;;;;19.50;44.60;;;;;;4953632;28;20013;-78
2022/04/22 05:16:29;;;;;;;;;;;19.60;44.80;;;;;;4952931;29;20290;-77
2022/04/22 05:18:54;;;;;;;;;;;19.70;45.30;;;;;;4952446;29;19915;-77
2022/04/22 05:21:19;;;;;;;;;;;19.70;45.10;;;;;;4952761;29;19911;-78
2022/04/22 05:23:45;;;;;;;;;;;19.80;45.10;;;;;;4952924;29;19911;-78
2022/04/22 05:26:10;;;;;;;;;;;19.90;44.70;;;;;;4951248;28;19996;-78
2022/04/22 05:28:36;;;;;;;;;;;20.00;44.40;;;;;;5014280;28;19914;-77
2022/04/22 05:33:46;;;;;;;;;;;20.40;44.10;;;;;;4960060;28;19968;-78
2022/04/22 05:36:12;;;;;;;;;;;20.50;43.80;;;;;;4953754;29;19910;-77
2022/04/22 05:38:38;;;;;;;;;;;20.60;43.60;;;;;;4964931;28;19932;-77
2022/04/22 05:41:03;;;;;;;;;;;20.70;43.00;;;;;;4962732;28;19926;-77
2022/04/22 05:43:29;;;;;;;;;;;20.90;42.20;;;;;;4993690;28;19915;-77
2022/04/22 05:45:54;;;;;;;;;;;21.00;42.00;;;;;;5053341;28;20386;-77
2022/04/22 05:48:20;;;;;;;;;;;21.10;41.80;;;;;;4988659;28;19910;-77
2022/04/22 05:50:46;;;;;;;;;;;21.10;41.20;;;;;;4971064;28;20393;-76
2022/04/22 05:53:11;;;;;;;;;;;21.30;41.00;;;;;;4969843;28;20374;-76
2022/04/22 05:55:37;;;;;;;;;;;21.40;40.80;;;;;;4952083;28;19914;-77
2022/04/22 05:58:02;;;;;;;;;;;21.60;40.70;;;;;;4952023;29;19957;-77
2022/04/22 06:00:32;;;;;;;;;;;21.80;40.30;;;;;;4951131;28;19915;-76
2022/04/22 06:02:58;;;;;;;;;;;22.00;40.00;;;;;;4946452;29;19923;-76
2022/04/22 06:05:24;;;;;;;;;;;22.20;39.60;;;;;;4985570;28;19922;-76
2022/04/22 06:10:31;;;;;;;;;;;22.30;39.20;;;;;;4971114;28;19914;-76
2022/04/22 06:10:36;;;;;;;;;;;22.60;39.20;;;;;;4954961;28;20001;-76
2022/04/22 06:13:02;;;;;;;;;;;22.90;39.00;;;;;;4951870;28;19914;-77
2022/04/22 06:15:27;;;;;;;;;;;23.20;39.20;;;;;;4951770;29;19914;-77
2022/04/22 06:17:53;;;;;;;;;;;23.40;39.50;;;;;;4951633;29;19943;-76
2022/04/22 06:20:19;;;;;;;;;;;23.60;38.60;;;;;;4948748;29;20259;-76
2022/04/22 06:22:45;;;;;;;;;;;23.80;37.70;;;;;;4954115;28;19915;-78
2022/04/22 06:25:11;;;;;;;;;;;23.90;37.70;;;;;;4959656;28;20021;-77
2022/04/22 06:27:38;;;;;;;;;;;24.10;37.60;;;;;;4963947;28;20384;-78
2022/04/22 06:30:06;;;;;;;;;;;24.30;37.40;;;;;;4951194;28;20366;-77
2022/04/22 06:32:31;;;;;;;;;;;24.50;37.00;;;;;;4951587;28;19918;-77
2022/04/22 06:34:57;;;;;;;;;;;24.70;41.10;;;;;;4951423;29;19960;-77
2022/04/22 06:37:23;;;;;;;;;;;24.80;35.90;;;;;;4951627;28;20355;-77
2022/04/22 06:48:01;;;;;;;;;;;25.50;35.20;;;;;;4970025;28;20352;-77
2022/04/22 06:50:27;;;;;;;;;;;25.50;34.80;;;;;;4969029;28;19910;-76
2022/04/22 06:52:52;;;;;;;;;;;25.90;34.70;;;;;;4970435;28;19922;-77
2022/04/22 06:55:18;;;;;;;;;;;26.00;35.00;;;;;;4969212;28;19922;-77
2022/04/22 06:57:46;;;;;;;;;;;26.10;34.40;;;;;;4993501;28;20011;-77
2022/04/22 07:00:11;;;;;;;;;;;26.10;34.10;;;;;;4955627;28;19921;-77
2022/04/22 07:02:37;;;;;;;;;;;26.20;33.70;;;;;;4962499;28;20184;-77
2022/04/22 07:05:03;;;;;;;;;;;26.40;33.70;;;;;;4960924;28;19918;-77
2022/04/22 07:07:29;;;;;;;;;;;26.50;33.30;;;;;;4965745;28;19915;-77
2022/04/22 07:09:54;;;;;;;;;;;26.70;33.10;;;;;;4950518;28;19921;-77
2022/04/22 07:12:21;;;;;;;;;;;26.80;33.10;;;;;;4950807;28;20404;-76
2022/04/22 07:14:47;;;;;;;;;;;26.90;33.00;;;;;;4950709;28;19919;-76
2022/04/22 07:17:13;;;;;;;;;;;27.00;32.60;;;;;;4950961;28;20010;-76
2022/04/22 07:19:41;;;;;;;;;;;27.20;32.80;;;;;;4950562;29;19997;-77
2022/04/22 07:22:07;;;;;;;;;;;27.20;32.40;;;;;;4954061;29;19915;-76
2022/04/22 07:24:32;;;;;;;;;;;27.20;32.50;;;;;;4953616;29;20438;-76
2022/04/22 07:26:58;;;;;;;;;;;27.20;32.40;;;;;;4950781;29;19910;-77
2022/04/22 07:29:24;;;;;;;;;;;27.20;32.40;;;;;;4950604;28;19915;-78
2022/04/22 07:31:50;;;;;;;;;;;27.30;32.50;;;;;;4950759;29;19997;-78
2022/04/22 07:34:15;;;;;;;;;;;27.30;32.40;;;;;;4951403;29;19918;-79
2022/04/22 07:36:42;;;;;;;;;;;27.40;32.20;;;;;;4950599;29;20278;-78
2022/04/22 07:39:08;;;;;;;;;;;27.50;32.20;;;;;;4950177;29;19917;-78
2022/04/22 07:41:36;;;;;;;;;;;27.50;32.10;;;;;;4963917;28;19917;-79
2022/04/22 07:46:47;;;;;;;;;;;27.70;32.10;;;;;;4950538;29;19938;-78
2022/04/22 07:49:12;;;;;;;;;;;27.80;31.80;;;;;;4986341;28;19960;-78
2022/04/22 07:51:39;;;;;;;;;;;27.90;31.60;;;;;;4955096;28;19922;-78
2022/04/22 07:54:05;;;;;;;;;;;28.20;31.30;;;;;;4953856;28;19919;-77
2022/04/22 07:56:31;;;;;;;;;;;28.40;31.10;;;;;;4950549;29;20287;-78
2022/04/22 07:58:56;;;;;;;;;;;28.40;30.80;;;;;;4949952;28;19922;-77
2022/04/22 08:01:22;;;;;;;;;;;28.70;30.70;;;;;;4948959;28;19934;-77
2022/04/22 08:03:47;;;;;;;;;;;28.90;30.40;;;;;;4950271;28;19914;-77
2022/04/22 08:06:13;;;;;;;;;;;29.10;30.40;;;;;;4950110;29;19969;-78
2022/04/22 08:08:39;;;;;;;;;;;29.20;30.10;;;;;;4949986;28;20006;-77
2022/04/22 08:11:04;;;;;;;;;;;29.50;29.90;;;;;;4950150;28;19918;-77
2022/04/22 08:13:31;;;;;;;;;;;29.60;29.80;;;;;;4950182;28;19914;-77
2022/04/22 08:15:56;;;;;;;;;;;29.80;29.70;;;;;;4950096;28;20001;-76
2022/04/22 08:18:22;;;;;;;;;;;29.80;29.50;;;;;;4950131;28;19946;-77
2022/04/22 08:20:47;;;;;;;;;;;30.00;29.40;;;;;;4951277;28;20289;-79
2022/04/22 08:23:13;;;;;;;;;;;30.00;29.20;;;;;;4952829;28;20012;-79
2022/04/22 08:25:39;;;;;;;;;;;30.30;29.10;;;;;;4955917;28;20281;-79
2022/04/22 08:28:05;;;;;;;;;;;30.50;28.90;;;;;;4956413;28;19916;-79
2022/04/22 08:30:30;;;;;;;;;;;30.70;28.80;;;;;;4956514;28;19997;-79
2022/04/22 08:32:56;;;;;;;;;;;30.80;28.60;;;;;;4963031;28;19926;-79
2022/04/22 08:35:22;;;;;;;;;;;30.90;28.40;;;;;;4958773;28;19972;-79
2022/04/22 08:37:47;;;;;;;;;;;31.00;28.30;;;;;;4954916;29;19918;-79
2022/04/22 08:40:13;;;;;;;;;;;31.20;28.30;;;;;;4955524;28;19914;-79
2022/04/22 08:42:40;;;;;;;;;;;31.30;28.10;;;;;;4954119;29;19917;-79
2022/04/22 08:45:06;;;;;;;;;;;31.50;27.90;;;;;;4938320;28;19969;-80
2022/04/22 08:50:19;;;;;;;;;;;31.50;27.70;;;;;;4987272;28;20405;-80
2022/04/22 08:53:05;;;;;;;;;;;31.80;27.60;;;;;;4952786;28;19916;-79
2022/04/22 08:55:32;;;;;;;;;;;31.90;27.50;;;;;;4981467;28;19922;-77
2022/04/22 08:57:58;;;;;;;;;;;31.70;26.80;;;;;;4957852;28;19923;-78
2022/04/22 09:00:27;;;;;;;;;;;31.50;26.50;;;;;;4986508;28;19921;-78
2022/04/22 09:02:54;;;;;;;;;;;31.60;26.60;;;;;;5054305;28;19920;-76
2022/04/22 09:05:20;;;;;;;;;;;31.60;26.30;;;;;;4996883;28;20134;-76
2022/04/22 09:07:46;;;;;;;;;;;31.70;26.60;;;;;;4953211;28;19922;-77
2022/04/22 09:10:12;;;;;;;;;;;31.80;26.40;;;;;;4962457;28;19921;-78
2022/04/22 09:12:40;;;;;;;;;;;31.90;26.00;;;;;;4971856;28;19910;-77
2022/04/22 09:15:07;;;;;;;;;;;31.80;26.30;;;;;;4966835;28;19925;-77
2022/04/22 09:17:33;;;;;;;;;;;31.70;25.90;;;;;;4949955;28;19951;-77
2022/04/22 09:20:01;;;;;;;;;;;32.00;25.70;;;;;;4962833;28;20025;-77
2022/04/22 09:22:27;;;;;;;;;;;32.10;25.50;;;;;;4984218;28;19914;-77
2022/04/22 09:24:54;;;;;;;;;;;31.90;25.30;;;;;;4952241;29;19954;-77
2022/04/22 09:27:29;;;;;;;;;;;32.00;25.50;;;;;;4974511;28;20320;-77
2022/04/22 09:29:55;;;;;;;;;;;32.20;25.30;;;;;;5007736;28;19913;-77
2022/04/22 09:32:23;;;;;;;;;;;32.10;25.20;;;;;;4969332;28;20361;-77
2022/04/22 09:34:49;;;;;;;;;;;32.00;25.10;;;;;;4952387;29;19921;-77
2022/04/22 09:42:52;;;;;;;;;;;32.10;24.90;;;;;;4940101;29;19950;-77
2022/04/22 09:45:17;;;;;;;;;;;32.20;24.70;;;;;;4954890;29;20378;-77
2022/04/22 09:47:43;;;;;;;;;;;32.00;24.40;;;;;;4960943;28;19918;-77
2022/04/22 09:50:11;;;;;;;;;;;32.30;25.10;;;;;;4951890;29;19910;-77
2022/04/22 09:52:46;;;;;;;;;;;32.20;24.30;;;;;;4952098;29;20379;-76
2022/04/22 09:55:16;;;;;;;;;;;32.10;23.90;;;;;;4943903;29;19957;-77
2022/04/22 09:57:52;;;;;;;;;;;32.10;24.40;;;;;;4986753;28;19918;-78
2022/04/22 10:00:18;;;;;;;;;;;31.90;24.10;;;;;;4987131;28;20065;-77
2022/04/22 10:02:45;;;;;;;;;;;31.90;24.40;;;;;;5001712;28;19908;-77
2022/04/22 10:05:11;;;;;;;;;;;32.20;24.50;;;;;;4981607;28;19914;-77
2022/04/22 10:07:36;;;;;;;;;;;32.00;24.20;;;;;;4970209;28;20001;-77
2022/04/22 10:10:03;;;;;;;;;;;32.00;24.40;;;;;;4975118;28;19910;-77
2022/04/22 10:12:29;;;;;;;;;;;31.80;24.20;;;;;;4950601;29;19938;-77
2022/04/22 10:14:57;;;;;;;;;;;31.80;24.60;;;;;;4940610;29;19954;-77
2022/04/22 10:17:23;;;;;;;;;;;32.00;24.10;;;;;;4945030;28;20195;-77
2022/04/22 10:19:49;;;;;;;;;;;31.80;23.90;;;;;;4969992;28;19922;-77
2022/04/22 10:22:15;;;;;;;;;;;32.00;24.40;;;;;;4931501;28;19922;-77
2022/04/22 10:24:41;;;;;;;;;;;31.00;25.00;;;;;;4938825;28;19929;-78
2022/04/22 10:27:08;;;;;;;;;;;31.20;24.70;;;;;;5011994;28;19995;-77
2022/04/22 10:29:35;;;;;;;;;;;31.50;24.60;;;;;;4957231;28;19914;-77
2022/04/22 10:32:02;;;;;;;;;;;31.70;24.80;;;;;;4951953;28;19915;-77
2022/04/22 10:34:36;;;;;;;;;;;31.80;24.50;;;;;;4951523;28;19980;-77
2022/04/22 10:37:02;;;;;;;;;;;31.70;24.30;;;;;;4951538;29;19914;-77
2022/04/22 10:39:34;;;;;;;;;;;31.80;24.20;;;;;;4951129;29;20005;-77
2022/04/22 10:42:00;;;;;;;;;;;31.80;24.10;;;;;;4949803;28;19960;-78
2022/04/22 10:47:16;;;;;;;;;;;31.80;24.30;;;;;;4949505;28;19957;-77
2022/04/22 10:49:45;;;;;;;;;;;31.80;24.00;;;;;;4951504;28;19915;-77
2022/04/22 10:52:14;;;;;;;;;;;31.80;24.30;;;;;;4931824;29;19969;-77
2022/04/22 10:54:55;;;;;;;;;;;31.70;24.20;;;;;;4931972;29;19926;-77
2022/04/22 10:57:29;;;;;;;;;;;31.80;24.50;;;;;;4932052;29;19922;-76
2022/04/22 11:00:07;;;;;;;;;;;31.50;24.20;;;;;;4931633;29;20010;-77
2022/04/22 11:02:34;;;;;;;;;;;31.10;24.90;;;;;;4941154;29;19910;-77
2022/04/22 11:05:21;;;;;;;;;;;30.30;25.30;;;;;;4958416;28;20184;-77
2022/04/22 11:07:47;;;;;;;;;;;30.40;24.90;;;;;;4936434;28;19915;-77
2022/04/22 11:10:12;;;;;;;;;;;29.90;25.50;;;;;;4954414;28;19914;-77
2022/04/22 11:12:51;;;;;;;;;;;28.80;26.30;;;;;;4960058;28;20113;-77
2022/04/22 11:15:36;;;;;;;;;;;28.00;27.30;;;;;;4964937;28;19983;-77
2022/04/22 11:18:01;;;;;;;;;;;27.30;28.20;;;;;;4991894;28;19917;-77
2022/04/22 11:20:27;;;;;;;;;;;26.90;28.80;;;;;;5003865;28;19920;-77
2022/04/22 11:22:54;;;;;;;;;;;26.70;29.10;;;;;;4964636;28;19924;-77
2022/04/22 11:25:22;;;;;;;;;;;26.50;29.20;;;;;;4966844;28;20298;-77
2022/04/22 11:27:48;;;;;;;;;;;26.50;29.60;;;;;;4997214;28;20391;-77
2022/04/22 11:30:14;;;;;;;;;;;26.30;29.80;;;;;;5051057;28;19944;-77
2022/04/22 11:32:45;;;;;;;;;;;26.10;30.00;;;;;;4984911;28;20297;-77
2022/04/22 11:35:15;;;;;;;;;;;26.10;29.70;;;;;;4951842;28;19941;-77
2022/04/22 11:37:41;;;;;;;;;;;25.90;29.90;;;;;;4951103;29;19937;-77
2022/04/22 11:40:08;;;;;;;;;;;25.80;30.10;;;;;;4950121;29;20390;-76
2022/04/22 11:42:43;;;;;;;;;;;25.70;30.40;;;;;;4949193;29;20399;-77
2022/04/22 11:45:11;;;;;;;;;;;25.60;30.50;;;;;;4948952;29;19964;-77
2022/04/22 11:47:37;;;;;;;;;;;25.40;30.40;;;;;;4951401;28;19921;-77
2022/04/22 11:50:03;;;;;;;;;;;25.20;30.30;;;;;;4970465;28;19915;-77
2022/04/22 11:52:31;;;;;;;;;;;25.10;30.50;;;;;;4965146;28;19922;-77
2022/04/22 11:54:59;;;;;;;;;;;25.10;30.70;;;;;;4964741;28;19923;-77
2022/04/22 11:57:25;;;;;;;;;;;24.90;31.30;;;;;;4991658;28;19909;-77
2022/04/22 12:05:33;;;;;;;;;;;24.50;31.70;;;;;;4950755;29;19992;-77
2022/04/22 12:08:04;;;;;;;;;;;24.60;31.90;;;;;;4950993;28;19911;-77
2022/04/22 12:10:29;;;;;;;;;;;24.70;31.90;;;;;;4952844;29;19911;-77
2022/04/22 12:13:00;;;;;;;;;;;24.50;31.40;;;;;;4951741;29;19918;-77
2022/04/22 12:15:26;;;;;;;;;;;24.30;31.80;;;;;;4948979;28;19925;-76
2022/04/22 12:17:52;;;;;;;;;;;24.20;32.10;;;;;;4950349;29;20505;-77
2022/04/22 12:20:18;;;;;;;;;;;24.10;32.10;;;;;;4949902;28;19968;-77
2022/04/22 12:22:44;;;;;;;;;;;24.10;32.30;;;;;;4950270;28;19917;-77
2022/04/22 12:25:13;;;;;;;;;;;24.00;32.30;;;;;;4950010;29;19915;-77
2022/04/22 12:27:40;;;;;;;;;;;24.00;32.50;;;;;;4950391;29;19938;-78
2022/04/22 12:30:09;;;;;;;;;;;24.00;32.30;;;;;;4950276;29;19910;-77
2022/04/22 12:32:36;;;;;;;;;;;24.20;32.60;;;;;;4950028;28;19911;-77
2022/04/22 12:35:17;;;;;;;;;;;24.10;32.40;;;;;;4949928;28;19984;-76
2022/04/22 12:37:44;;;;;;;;;;;24.00;32.70;;;;;;4948915;29;19918;-76
2022/04/22 12:40:10;;;;;;;;;;;23.90;32.70;;;;;;4949605;28;19950;-76
2022/04/22 12:42:36;;;;;;;;;;;23.80;33.10;;;;;;4950052;29;20118;-76
2022/04/22 12:53:46;;;;;;;;;;;24.00;33.00;;;;;;4949881;29;19922;-76
2022/04/22 12:56:11;;;;;;;;;;;23.90;33.00;;;;;;4949947;28;20005;-76
2022/04/22 12:58:50;;;;;;;;;;;23.80;32.90;;;;;;4949630;29;19946;-76
2022/04/22 13:01:40;;;;;;;;;;;23.70;32.80;;;;;;4949607;28;19923;-77
2022/04/22 13:04:06;;;;;;;;;;;23.60;33.00;;;;;;4949705;28;20404;-75
2022/04/22 13:06:42;;;;;;;;;;;23.60;33.40;;;;;;4949691;29;19965;-76
2022/04/22 13:09:09;;;;;;;;;;;23.50;33.30;;;;;;4949436;29;19921;-75
2022/04/22 13:11:34;;;;;;;;;;;23.60;33.10;;;;;;4951874;28;19912;-74
2022/04/22 13:14:00;;;;;;;;;;;23.60;33.10;;;;;;4952619;29;20009;-75
2022/04/22 13:16:26;;;;;;;;;;;23.40;33.00;;;;;;4952641;28;19933;-74
2022/04/22 13:18:51;;;;;;;;;;;23.30;33.70;;;;;;4951118;28;19917;-74
2022/04/22 13:21:17;;;;;;;;;;;23.30;33.70;;;;;;4952624;29;19919;-74
2022/04/22 13:23:42;;;;;;;;;;;23.40;33.50;;;;;;4951111;29;19915;-74
2022/04/22 13:26:08;;;;;;;;;;;23.40;33.60;;;;;;4951423;29;19911;-74
2022/04/22 13:28:33;;;;;;;;;;;23.30;33.40;;;;;;4951114;29;20439;-74
2022/04/22 13:30:59;;;;;;;;;;;23.10;33.60;;;;;;4952435;29;20001;-74
2022/04/22 13:33:25;;;;;;;;;;;23.10;33.80;;;;;;4951314;29;20005;-74
2022/04/22 13:35:51;;;;;;;;;;;23.20;33.80;;;;;;4952548;28;20353;-75
2022/04/22 13:38:16;;;;;;;;;;;23.20;33.40;;;;;;4951741;28;19957;-75
2022/04/22 13:40:42;;;;;;;;;;;23.10;33.50;;;;;;4952341;28;19914;-75
2022/04/22 13:43:08;;;;;;;;;;;23.10;33.40;;;;;;4951714;29;19967;-75
2022/04/22 13:53:46;;;;;;;;;;;23.30;33.50;;;;;;4952657;29;20398;-74
2022/04/22 13:56:11;;;;;;;;;;;23.30;33.50;;;;;;4951876;29;19910;-74
2022/04/22 13:58:38;;;;;;;;;;;23.30;33.50;;;;;;4952353;29;19957;-74
2022/04/22 14:01:04;;;;;;;;;;;23.10;33.40;;;;;;4953557;28;20443;-75
2022/04/22 14:03:30;;;;;;;;;;;23.20;33.40;;;;;;4954407;29;19911;-75
2022/04/22 14:05:56;;;;;;;;;;;22.90;33.40;;;;;;4954015;29;19917;-75
2022/04/22 14:08:21;;;;;;;;;;;22.90;33.60;;;;;;4952916;29;19910;-76
2022/04/22 14:10:47;;;;;;;;;;;23.10;33.80;;;;;;4952080;28;19971;-76
2022/04/22 14:13:14;;;;;;;;;;;23.10;33.30;;;;;;4953126;28;19915;-75
2022/04/22 14:15:43;;;;;;;;;;;23.10;33.50;;;;;;4952861;28;20270;-75
2022/04/22 14:18:09;;;;;;;;;;;23.00;33.40;;;;;;4952705;28;19917;-75
2022/04/22 14:20:35;;;;;;;;;;;23.00;33.40;;;;;;4952025;29;19911;-75
2022/04/22 14:23:01;;;;;;;;;;;23.10;33.70;;;;;;4951655;28;19999;-75
2022/04/22 14:25:26;;;;;;;;;;;23.00;33.60;;;;;;4950890;29;19969;-76
2022/04/22 14:27:52;;;;;;;;;;;22.90;33.50;;;;;;4952261;29;20277;-74
2022/04/22 14:30:17;;;;;;;;;;;23.00;33.60;;;;;;4951755;29;19922;-74
2022/04/22 14:32:42;;;;;;;;;;;22.80;33.60;;;;;;4951711;29;19921;-75
2022/04/22 14:35:09;;;;;;;;;;;22.80;33.60;;;;;;4952015;29;20290;-75
2022/04/22 14:37:34;;;;;;;;;;;22.80;33.70;;;;;;4952838;28;19914;-75
2022/04/22 14:40:01;;;;;;;;;;;22.70;33.70;;;;;;4949833;28;20163;-75
2022/04/22 14:42:26;;;;;;;;;;;22.80;33.80;;;;;;4950226;29;19946;-75
2022/04/22 14:44:52;;;;;;;;;;;22.90;33.70;;;;;;4951431;29;19997;-74
2022/04/22 14:47:21;;;;;;;;;;;22.90;33.60;;;;;;4939848;29;19914;-74
2022/04/22 14:49:47;;;;;;;;;;;22.90;33.70;;;;;;4944735;29;19919;-75
2022/04/22 14:52:13;;;;;;;;;;;22.90;33.30;;;;;;4951644;28;19988;-74
2022/04/22 14:54:39;;;;;;;;;;;22.80;33.50;;;;;;4951709;28;20018;-74
2022/04/22 14:57:05;;;;;;;;;;;22.80;33.60;;;;;;4951446;28;19917;-76
2022/04/22 14:59:31;;;;;;;;;;;22.80;33.40;;;;;;4950921;28;19968;-75
2022/04/22 15:01:56;;;;;;;;;;;22.80;33.40;;;;;;4951028;28;19915;-74
2022/04/22 15:04:22;;;;;;;;;;;22.50;33.40;;;;;;4951163;28;19911;-75
2022/04/22 15:06:47;;;;;;;;;;;22.30;33.50;;;;;;4951300;28;19910;-76
2022/04/22 15:09:14;;;;;;;;;;;22.20;33.50;;;;;;4950857;28;20011;-75
2022/04/22 15:11:40;;;;;;;;;;;22.40;34.20;;;;;;4951213;28;19911;-75
2022/04/22 15:14:06;;;;;;;;;;;22.40;33.60;;;;;;4950925;28;19938;-76
2022/04/22 15:16:31;;;;;;;;;;;22.40;33.40;;;;;;4950941;28;20405;-77
2022/04/22 15:24:25;;;;;;;;;;;22.30;33.50;;;;;;4951277;29;19964;-75
2022/04/22 15:26:53;;;;;;;;;;;22.50;33.70;;;;;;4950120;28;19922;-75
2022/04/22 15:29:20;;;;;;;;;;;22.40;33.70;;;;;;4950512;28;19969;-75
2022/04/22 15:31:45;;;;;;;;;;;22.30;33.90;;;;;;4951278;28;20001;-75
2022/04/22 15:34:11;;;;;;;;;;;22.30;33.80;;;;;;4949548;28;20021;-75